createdAt,value
2022-12-18T00:00:10.404Z,4.20
2022-12-18T00:02:39.786Z,8.23
2022-12-18T00:05:09.245Z,5.37
2022-12-18T00:07:38.731Z,6.80
2022-12-18T00:10:08.552Z,4.90
2022-12-18T00:12:36.546Z,6.00
2022-12-18T00:15:05.335Z,5.40
2022-12-18T00:17:33.384Z,4.80
2022-12-18T00:20:02.730Z,4.23
2022-12-18T00:22:30.646Z,4.00
2022-12-18T00:24:58.667Z,4.07
2022-12-18T00:27:26.720Z,4.87
2022-12-18T00:29:54.748Z,4.03
2022-12-18T00:32:22.753Z,3.67
2022-12-18T00:34:50.684Z,4.37
2022-12-18T00:37:22.724Z,4.60
2022-12-18T00:39:51.341Z,4.23
2022-12-18T00:42:36.974Z,2.90
2022-12-18T00:45:12.105Z,3.80
2022-12-18T00:47:41.222Z,4.33
2022-12-18T00:50:11.105Z,3.50
2022-12-18T00:52:43.559Z,4.27
2022-12-18T00:55:12.260Z,4.33
2022-12-18T00:57:40.524Z,3.20
2022-12-18T01:00:12.047Z,3.40
2022-12-18T01:02:40.307Z,4.43
2022-12-18T01:05:09.735Z,4.30
2022-12-18T01:07:37.669Z,4.30
2022-12-18T01:10:09.177Z,4.43
2022-12-18T01:12:37.456Z,2.50
2022-12-18T01:15:07.492Z,4.10
2022-12-18T01:17:35.858Z,3.80
2022-12-18T01:20:04.210Z,3.40
2022-12-18T01:22:32.190Z,3.67
2022-12-18T01:25:00.238Z,3.57
2022-12-18T01:27:29.629Z,4.73
2022-12-18T01:29:57.635Z,4.70
2022-12-18T01:32:25.611Z,4.30
2022-12-18T01:34:53.609Z,4.57
2022-12-18T01:37:21.628Z,5.37
2022-12-18T01:39:50.846Z,4.80
2022-12-18T01:42:19.373Z,3.93
2022-12-18T01:45:03.167Z,4.80
2022-12-18T01:47:50.228Z,5.20
2022-12-18T01:50:21.951Z,4.70
2022-12-18T01:52:57.032Z,4.37
2022-12-18T01:55:29.802Z,5.33
2022-12-18T01:58:01.065Z,6.33
2022-12-18T02:00:31.178Z,4.90
2022-12-18T02:02:59.711Z,5.03
2022-12-18T02:05:43.594Z,5.50
2022-12-18T02:08:19.934Z,6.00
2022-12-18T02:10:54.428Z,5.83
2022-12-18T02:13:28.988Z,6.50
2022-12-18T02:16:06.410Z,5.80
2022-12-18T02:18:39.421Z,5.90
2022-12-18T02:21:15.323Z,7.80
2022-12-18T02:23:59.051Z,5.47
2022-12-18T02:26:33.566Z,6.83
2022-12-18T02:29:07.110Z,6.30
2022-12-18T02:31:44.333Z,5.40
2022-12-18T02:34:14.575Z,6.83
2022-12-18T02:36:46.082Z,6.80
2022-12-18T02:39:15.849Z,5.43
2022-12-18T02:41:45.561Z,6.00
2022-12-18T02:44:15.747Z,7.97
2022-12-18T02:46:47.746Z,7.07
2022-12-18T02:49:31.489Z,6.03
2022-12-18T02:52:09.492Z,6.87
2022-12-18T02:54:57.885Z,7.27
2022-12-18T02:57:37.059Z,6.23
2022-12-18T03:00:10.646Z,6.67
2022-12-18T03:02:47.258Z,7.00
2022-12-18T03:05:20.923Z,5.33
2022-12-18T03:07:54.810Z,5.63
2022-12-18T03:10:29.164Z,6.80
2022-12-18T03:13:05.554Z,7.67
2022-12-18T03:15:39.658Z,6.93
2022-12-18T03:18:13.628Z,5.13
2022-12-18T03:20:47.000Z,7.70
2022-12-18T03:23:18.794Z,7.50
2022-12-18T03:25:48.618Z,5.87
2022-12-18T03:28:22.994Z,8.40
2022-12-18T03:30:55.800Z,6.07
2022-12-18T03:33:28.839Z,5.80
2022-12-18T03:35:57.224Z,6.83
2022-12-18T03:38:25.359Z,6.63
2022-12-18T03:41:02.091Z,5.93
2022-12-18T03:43:44.765Z,5.80
2022-12-18T03:46:22.626Z,5.33
2022-12-18T03:49:02.216Z,5.90
2022-12-18T03:51:39.841Z,5.70
2022-12-18T03:54:10.302Z,5.40
2022-12-18T03:56:42.987Z,7.80
2022-12-18T03:59:13.548Z,6.60
2022-12-18T04:01:47.506Z,7.93
2022-12-18T04:04:17.707Z,5.80
2022-12-18T04:06:47.858Z,7.27
2022-12-18T04:09:16.697Z,5.20
2022-12-18T04:11:45.672Z,7.17
2022-12-18T04:14:17.950Z,7.27
2022-12-18T04:16:46.446Z,7.30
2022-12-18T04:19:14.661Z,5.70
2022-12-18T04:21:42.689Z,6.27
2022-12-18T04:24:10.760Z,6.77
2022-12-18T04:26:39.262Z,7.07
2022-12-18T04:29:07.233Z,6.53
2022-12-18T04:31:36.548Z,5.90
2022-12-18T04:34:05.105Z,5.57
2022-12-18T04:36:33.182Z,6.73
2022-12-18T04:39:01.453Z,6.20
2022-12-18T04:41:29.400Z,5.33
2022-12-18T04:43:57.386Z,5.57
2022-12-18T04:46:25.429Z,6.10
2022-12-18T04:48:54.826Z,6.63
2022-12-18T04:51:26.398Z,5.43
2022-12-18T04:53:54.999Z,6.67
2022-12-18T04:56:23.019Z,6.27
2022-12-18T04:58:51.319Z,5.77
2022-12-18T05:01:20.815Z,6.40
2022-12-18T05:03:49.034Z,5.47
2022-12-18T05:06:18.423Z,6.90
2022-12-18T05:08:46.553Z,6.17
2022-12-18T05:11:16.981Z,6.60
2022-12-18T05:13:46.639Z,5.13
2022-12-18T05:16:16.280Z,7.83
2022-12-18T05:18:44.767Z,6.43
2022-12-18T05:21:12.842Z,6.67
2022-12-18T05:23:42.740Z,7.20
2022-12-18T05:26:19.819Z,5.53
2022-12-18T05:28:48.463Z,7.27
2022-12-18T05:31:17.122Z,5.03
2022-12-18T05:33:45.257Z,8.13
2022-12-18T05:36:13.307Z,7.73
2022-12-18T05:38:43.048Z,7.50
2022-12-18T05:41:11.568Z,7.77
2022-12-18T05:43:41.752Z,7.30
2022-12-18T05:46:13.845Z,5.77
2022-12-18T05:48:42.139Z,5.77
2022-12-18T05:51:13.335Z,6.70
2022-12-18T05:53:44.161Z,6.83
2022-12-18T05:56:16.516Z,7.30
2022-12-18T05:58:44.970Z,6.73
2022-12-18T06:01:16.777Z,7.30
2022-12-18T06:03:45.873Z,5.70
2022-12-18T06:06:20.077Z,7.33
2022-12-18T06:08:49.618Z,5.77
2022-12-18T06:11:21.433Z,5.73
2022-12-18T06:13:57.939Z,7.67
2022-12-18T06:16:27.262Z,6.00
2022-12-18T06:18:55.397Z,6.10
2022-12-18T06:21:23.372Z,6.37
2022-12-18T06:23:52.696Z,6.80
2022-12-18T06:26:26.184Z,8.40
2022-12-18T06:28:55.942Z,6.30
2022-12-18T06:31:23.968Z,6.07
2022-12-18T06:33:51.988Z,5.50
2022-12-18T06:36:20.630Z,6.30
2022-12-18T06:38:48.818Z,6.67
2022-12-18T06:41:21.167Z,7.33
2022-12-18T06:43:49.465Z,6.10
2022-12-18T06:46:17.902Z,6.77
2022-12-18T06:48:50.723Z,6.23
2022-12-18T06:51:25.310Z,6.73
2022-12-18T06:53:53.477Z,6.17
2022-12-18T06:56:22.817Z,7.03
2022-12-18T06:58:53.908Z,7.30
2022-12-18T07:01:21.967Z,7.53
2022-12-18T07:03:55.051Z,3.77
2022-12-18T07:06:25.508Z,5.63
2022-12-18T07:08:55.299Z,5.63
2022-12-18T07:11:25.251Z,6.00
2022-12-18T07:13:55.517Z,8.87
2022-12-18T07:16:25.822Z,8.03
2022-12-18T07:18:54.394Z,7.33
2022-12-18T07:21:26.119Z,7.73
2022-12-18T07:23:54.402Z,6.20
2022-12-18T07:26:24.693Z,5.50
2022-12-18T07:28:52.955Z,7.17
2022-12-18T07:31:23.343Z,9.63
2022-12-18T07:33:51.865Z,6.00
2022-12-18T07:36:20.495Z,6.70
2022-12-18T07:38:50.136Z,6.60
2022-12-18T07:41:19.512Z,6.90
2022-12-18T07:43:49.337Z,7.20
2022-12-18T07:46:18.116Z,6.67
2022-12-18T07:48:49.584Z,7.20
2022-12-18T07:51:18.995Z,6.90
2022-12-18T07:53:48.779Z,6.37
2022-12-18T07:56:29.932Z,5.80
2022-12-18T07:59:00.936Z,5.90
2022-12-18T08:01:29.428Z,6.67
2022-12-18T08:03:57.587Z,8.30
2022-12-18T08:06:25.590Z,5.60
2022-12-18T08:08:54.630Z,6.30
2022-12-18T08:11:23.725Z,6.97
2022-12-18T08:13:52.001Z,6.40
2022-12-18T08:16:22.026Z,6.27
2022-12-18T08:18:53.106Z,5.87
2022-12-18T08:21:24.032Z,7.60
2022-12-18T08:23:55.660Z,7.23
2022-12-18T08:26:25.135Z,6.80
2022-12-18T08:28:53.844Z,5.67
2022-12-18T08:31:25.590Z,9.40
2022-12-18T08:33:55.363Z,10.07
2022-12-18T08:36:24.451Z,9.60
2022-12-18T08:38:53.622Z,10.73
2022-12-18T08:41:21.881Z,16.70
2022-12-18T08:44:08.006Z,15.83
2022-12-18T08:46:39.524Z,11.70
2022-12-18T08:49:08.806Z,13.90
2022-12-18T08:51:37.323Z,17.80
2022-12-18T08:54:06.802Z,12.67
2022-12-18T08:56:35.525Z,10.70
2022-12-18T08:59:03.717Z,12.00
2022-12-18T09:01:32.160Z,9.50
2022-12-18T09:04:01.732Z,10.77
2022-12-18T09:06:29.753Z,11.00
2022-12-18T09:08:59.025Z,11.77
2022-12-18T09:11:30.407Z,11.20
2022-12-18T09:13:59.570Z,10.07
2022-12-18T09:16:32.399Z,10.40
2022-12-18T09:19:03.542Z,11.97
2022-12-18T09:21:36.833Z,11.17
2022-12-18T09:24:09.033Z,28.10
2022-12-18T09:26:37.721Z,11.33
2022-12-18T09:29:08.742Z,12.57
2022-12-18T09:31:37.428Z,13.13
2022-12-18T09:34:10.343Z,10.30
2022-12-18T09:36:42.393Z,10.30
2022-12-18T09:39:12.049Z,11.13
2022-12-18T09:41:48.380Z,12.20
2022-12-18T09:44:23.689Z,12.23
2022-12-18T09:47:03.801Z,12.67
2022-12-18T09:49:38.353Z,11.13
2022-12-18T09:52:15.440Z,11.80
2022-12-18T09:54:51.789Z,12.53
2022-12-18T09:57:23.262Z,12.20
2022-12-18T09:59:57.814Z,11.20
2022-12-18T10:02:28.615Z,13.60
2022-12-18T10:05:11.960Z,12.90
2022-12-18T10:07:58.825Z,11.40
2022-12-18T10:10:42.398Z,12.80
2022-12-18T10:13:24.279Z,14.70
2022-12-18T10:16:05.623Z,12.70
2022-12-18T10:18:55.282Z,13.30
2022-12-18T10:21:33.327Z,12.43
2022-12-18T10:24:16.737Z,14.13
2022-12-18T10:26:45.591Z,12.87
2022-12-18T10:29:16.276Z,10.87
2022-12-18T10:31:44.650Z,14.30
2022-12-18T10:34:17.017Z,13.40
2022-12-18T10:36:46.578Z,13.50
2022-12-18T10:39:19.948Z,11.80
2022-12-18T10:41:47.953Z,12.80
2022-12-18T10:44:21.321Z,11.13
2022-12-18T10:46:52.157Z,11.30
2022-12-18T10:49:32.340Z,12.17
2022-12-18T10:52:16.958Z,12.43
2022-12-18T10:54:51.612Z,12.70
2022-12-18T10:57:36.769Z,12.77
2022-12-18T11:00:28.585Z,12.33
2022-12-18T11:02:57.252Z,12.00
2022-12-18T11:05:30.845Z,13.37
2022-12-18T11:08:03.021Z,11.97
2022-12-18T11:10:35.077Z,14.20
2022-12-18T11:13:20.632Z,11.60
2022-12-18T11:15:49.534Z,12.73
2022-12-18T11:18:27.091Z,11.70
2022-12-18T11:20:58.971Z,12.83
2022-12-18T11:23:31.641Z,10.87
2022-12-18T11:26:03.539Z,14.00
2022-12-18T11:28:40.080Z,13.63
2022-12-18T11:31:26.311Z,13.40
2022-12-18T11:36:56.818Z,11.30
2022-12-18T11:39:37.361Z,12.80
2022-12-18T11:42:14.719Z,13.40
2022-12-18T11:44:52.426Z,15.07
2022-12-18T11:47:31.606Z,12.97
2022-12-18T11:50:05.427Z,13.00
2022-12-18T11:52:39.676Z,11.90
2022-12-18T11:55:15.823Z,12.37
2022-12-18T11:57:54.368Z,14.17
2022-12-18T12:00:24.524Z,13.80
2022-12-18T12:03:24.159Z,12.23
2022-12-18T12:06:05.953Z,11.90
2022-12-18T12:08:49.547Z,14.80
2022-12-18T12:11:27.940Z,12.97
2022-12-18T12:14:14.272Z,13.50
2022-12-18T12:16:53.755Z,12.27
2022-12-18T12:19:42.085Z,12.17
2022-12-18T12:22:24.897Z,15.20
2022-12-18T12:25:15.399Z,14.30
2022-12-18T12:27:58.571Z,11.90
2022-12-18T12:30:40.021Z,14.03
2022-12-18T12:33:25.983Z,14.90
2022-12-18T12:36:03.186Z,15.00
2022-12-18T12:38:38.180Z,16.20
2022-12-18T12:41:30.182Z,15.17
2022-12-18T12:44:05.662Z,13.60
2022-12-18T12:46:39.364Z,14.20
2022-12-18T12:49:15.031Z,14.23
2022-12-18T12:51:48.744Z,13.90
2022-12-18T12:54:21.737Z,15.47
2022-12-18T12:56:59.436Z,16.77
2022-12-18T12:59:42.031Z,15.40
2022-12-18T13:02:20.579Z,18.50
2022-12-18T13:04:58.506Z,13.97
2022-12-18T13:07:34.303Z,14.73
2022-12-18T13:10:34.990Z,13.83
2022-12-18T13:13:07.090Z,11.43
2022-12-18T13:15:42.520Z,14.00
2022-12-18T13:18:22.327Z,13.50
2022-12-18T13:20:59.767Z,14.53
2022-12-18T13:23:39.633Z,14.30
2022-12-18T13:26:35.185Z,14.87
2022-12-18T13:29:06.916Z,14.53
2022-12-18T13:32:02.019Z,15.70
2022-12-18T13:34:33.289Z,17.13
2022-12-18T13:37:40.802Z,13.83
2022-12-18T13:41:00.094Z,14.53
2022-12-18T13:43:43.692Z,14.50
2022-12-18T13:46:25.731Z,16.90
2022-12-18T13:49:00.108Z,13.07
2022-12-18T13:51:32.902Z,14.53
2022-12-18T13:54:04.602Z,12.90
2022-12-18T13:56:35.434Z,17.50
2022-12-18T13:59:19.148Z,16.40
2022-12-18T14:01:56.317Z,15.53
2022-12-18T14:04:29.819Z,13.97
2022-12-18T14:07:02.969Z,13.33
2022-12-18T14:09:33.911Z,16.20
2022-12-18T14:12:20.413Z,15.27
2022-12-18T14:14:52.531Z,16.20
2022-12-18T14:17:23.144Z,13.83
2022-12-18T14:19:53.727Z,14.80
2022-12-18T14:22:28.602Z,16.80
2022-12-18T14:25:20.259Z,14.20
2022-12-18T14:27:51.662Z,14.20
2022-12-18T14:30:31.533Z,16.20
2022-12-18T14:33:07.165Z,13.73
2022-12-18T14:35:39.636Z,13.77
2022-12-18T14:38:24.474Z,17.60
2022-12-18T14:41:01.238Z,14.00
2022-12-18T14:43:31.399Z,14.57
2022-12-18T14:46:00.414Z,14.27
2022-12-18T14:48:39.301Z,15.20
2022-12-18T14:51:17.654Z,14.07
2022-12-18T14:53:54.156Z,17.50
2022-12-18T14:56:26.622Z,16.97
2022-12-18T14:59:00.882Z,15.50
2022-12-18T15:01:32.540Z,15.47
2022-12-18T15:04:02.516Z,14.90
2022-12-18T15:06:35.784Z,13.80
2022-12-18T15:09:06.988Z,17.33
2022-12-18T15:11:46.918Z,14.27
2022-12-18T15:14:37.015Z,13.90
2022-12-18T15:17:08.724Z,15.97
2022-12-18T15:19:43.147Z,13.23
2022-12-18T15:22:36.214Z,13.20
2022-12-18T15:25:25.251Z,14.90
2022-12-18T15:27:53.250Z,16.10
2022-12-18T15:30:24.615Z,16.10
2022-12-18T15:32:54.170Z,16.20
2022-12-18T15:35:25.397Z,15.20
2022-12-18T15:37:54.808Z,14.50
2022-12-18T15:40:25.287Z,13.40
2022-12-18T15:43:13.916Z,15.13
2022-12-18T15:45:41.965Z,15.73
2022-12-18T15:48:23.814Z,15.07
2022-12-18T15:50:56.352Z,14.90
2022-12-18T15:53:27.566Z,13.47
2022-12-18T15:56:12.999Z,13.93
2022-12-18T15:58:41.051Z,14.30
2022-12-18T16:01:10.914Z,14.27
2022-12-18T16:03:39.376Z,14.03
2022-12-18T16:06:08.269Z,13.40
2022-12-18T16:08:37.546Z,13.73
2022-12-18T16:11:10.193Z,13.53
2022-12-18T16:13:38.500Z,13.87
2022-12-18T16:16:07.639Z,15.00
2022-12-18T16:18:35.702Z,11.40
2022-12-18T16:21:03.685Z,20.17
2022-12-18T16:23:31.663Z,16.63
2022-12-18T16:26:01.025Z,16.40
2022-12-18T16:28:28.980Z,22.40
2022-12-18T16:30:56.992Z,17.30
2022-12-18T16:33:25.041Z,14.60
2022-12-18T16:35:55.810Z,13.43
2022-12-18T16:38:23.885Z,15.47
2022-12-18T16:41:09.613Z,14.43
2022-12-18T16:43:39.258Z,19.57
2022-12-18T16:46:07.468Z,16.63
2022-12-18T16:48:35.533Z,13.80
2022-12-18T16:51:05.834Z,18.43
2022-12-18T16:53:34.850Z,30.30
2022-12-18T16:56:03.207Z,13.47
2022-12-18T16:58:33.035Z,14.57
2022-12-18T17:01:02.410Z,15.23
2022-12-18T17:03:30.468Z,17.30
2022-12-18T17:06:04.320Z,12.93
2022-12-18T17:08:32.363Z,16.43
2022-12-18T17:11:06.198Z,12.80
2022-12-18T17:13:37.271Z,13.73
2022-12-18T17:16:08.300Z,14.53
2022-12-18T17:18:36.807Z,12.33
2022-12-18T17:21:09.399Z,12.03
2022-12-18T17:23:40.828Z,14.33
2022-12-18T17:26:10.468Z,12.23
2022-12-18T17:28:42.286Z,16.87
2022-12-18T17:31:18.132Z,13.13
2022-12-18T17:33:46.367Z,13.00
2022-12-18T17:36:14.906Z,15.40
2022-12-18T17:38:51.458Z,13.00
2022-12-18T17:41:19.654Z,14.80
2022-12-18T17:43:52.883Z,14.17
2022-12-18T17:46:23.192Z,14.87
2022-12-18T17:48:51.216Z,14.70
2022-12-18T17:51:19.614Z,14.70
2022-12-18T17:53:47.684Z,13.30
2022-12-18T17:56:19.878Z,11.43
2022-12-18T17:58:50.253Z,15.10
2022-12-18T18:01:22.391Z,11.87
2022-12-18T18:03:51.963Z,11.63
2022-12-18T18:06:21.966Z,13.17
2022-12-18T18:08:50.739Z,12.87
2022-12-18T18:11:39.012Z,13.50
2022-12-18T18:14:12.626Z,14.13
2022-12-18T18:16:44.475Z,13.20
2022-12-18T18:19:15.381Z,14.57
2022-12-18T18:21:45.301Z,15.07
2022-12-18T18:24:18.802Z,13.47
2022-12-18T18:26:47.988Z,12.60
2022-12-18T18:29:20.216Z,13.43
2022-12-18T18:31:49.838Z,15.80
2022-12-18T18:34:19.867Z,13.40
2022-12-18T18:36:47.937Z,11.40
2022-12-18T18:39:16.673Z,13.90
2022-12-18T18:41:48.003Z,15.10
2022-12-18T18:44:16.723Z,14.30
2022-12-18T18:46:45.132Z,12.40
2022-12-18T18:49:15.058Z,11.37
2022-12-18T18:51:43.330Z,14.40
2022-12-18T18:54:11.639Z,13.87
2022-12-18T18:57:04.104Z,13.47
2022-12-18T18:59:31.652Z,15.00
2022-12-18T19:02:04.451Z,14.23
2022-12-18T19:04:36.406Z,14.57
2022-12-18T19:07:06.597Z,14.27
2022-12-18T19:09:36.115Z,14.57
2022-12-18T19:12:22.576Z,13.80
2022-12-18T19:14:50.650Z,13.83
2022-12-18T19:17:18.718Z,12.20
2022-12-18T19:19:48.400Z,13.83
2022-12-18T19:22:16.496Z,13.63
2022-12-18T19:24:46.489Z,13.23
2022-12-18T19:27:19.815Z,13.97
2022-12-18T19:29:56.753Z,12.90
2022-12-18T19:32:25.051Z,12.80
2022-12-18T19:34:57.569Z,13.80
2022-12-18T19:37:25.702Z,16.57
2022-12-18T19:39:55.299Z,12.83
2022-12-18T19:42:29.312Z,15.70
2022-12-18T19:45:01.449Z,13.70
2022-12-18T19:47:36.691Z,15.33
2022-12-18T19:50:07.635Z,14.17
2022-12-18T19:52:35.770Z,12.77
2022-12-18T19:55:04.710Z,12.00
2022-12-18T19:57:33.205Z,14.60
2022-12-18T20:00:01.242Z,14.17
2022-12-18T20:02:29.477Z,12.70
2022-12-18T20:04:58.343Z,14.30
2022-12-18T20:07:29.991Z,14.83
2022-12-18T20:10:02.724Z,14.10
2022-12-18T20:12:36.565Z,13.53
2022-12-18T20:15:05.101Z,12.10
2022-12-18T20:17:33.151Z,15.07
2022-12-18T20:20:01.518Z,14.23
2022-12-18T20:22:30.989Z,14.37
2022-12-18T20:24:59.373Z,12.50
2022-12-18T20:27:27.444Z,17.10
2022-12-18T20:29:55.467Z,12.40
2022-12-18T20:32:25.991Z,14.53
2022-12-18T20:34:56.274Z,13.10
2022-12-18T20:37:24.617Z,12.33
2022-12-18T20:39:54.188Z,12.77
2022-12-18T20:42:22.148Z,15.70
2022-12-18T20:44:50.246Z,13.53
2022-12-18T20:47:18.292Z,15.43
2022-12-18T20:49:46.356Z,14.37
2022-12-18T20:52:14.361Z,14.03
2022-12-18T20:54:42.389Z,14.90
2022-12-18T20:57:11.756Z,14.23
2022-12-18T20:59:44.665Z,12.67
2022-12-18T21:02:16.224Z,14.30
2022-12-18T21:04:44.418Z,14.80
2022-12-18T21:07:12.408Z,12.83
2022-12-18T21:09:40.655Z,14.20
2022-12-18T21:12:44.026Z,14.30
2022-12-18T21:15:26.801Z,13.00
2022-12-18T21:17:56.563Z,13.97
2022-12-18T21:20:24.857Z,13.80
2022-12-18T21:22:52.848Z,15.27
2022-12-18T21:25:23.491Z,12.67
2022-12-18T21:27:55.794Z,14.40
2022-12-18T21:30:24.560Z,15.30
2022-12-18T21:32:52.842Z,14.60
2022-12-18T21:35:20.828Z,14.50
2022-12-18T21:37:50.084Z,14.77
2022-12-18T21:40:18.266Z,13.30
2022-12-18T21:43:03.707Z,17.03
2022-12-18T21:45:33.077Z,12.40
2022-12-18T21:48:01.203Z,12.80
2022-12-18T21:50:29.443Z,13.70
2022-12-18T21:52:57.407Z,13.90
2022-12-18T21:55:25.653Z,14.00
2022-12-18T21:57:55.210Z,12.87
2022-12-18T22:00:23.601Z,17.10
2022-12-18T22:03:17.231Z,15.50
2022-12-18T22:05:41.847Z,13.10
2022-12-18T22:08:09.927Z,13.83
2022-12-18T22:10:38.979Z,15.30
2022-12-18T22:13:08.407Z,13.33
2022-12-18T22:15:39.246Z,13.73
2022-12-18T22:18:08.765Z,17.67
2022-12-18T22:20:36.744Z,15.30
2022-12-18T22:23:06.099Z,14.70
2022-12-18T22:25:39.957Z,14.23
2022-12-18T22:28:26.057Z,14.90
2022-12-18T22:30:59.122Z,16.40
2022-12-18T22:33:31.728Z,14.63
2022-12-18T22:36:05.864Z,15.03
2022-12-18T22:38:34.996Z,12.77
2022-12-18T22:41:02.995Z,13.97
2022-12-18T22:43:30.952Z,13.73
2022-12-18T22:45:59.217Z,13.30
2022-12-18T22:48:28.586Z,13.70
2022-12-18T22:50:59.570Z,12.37
2022-12-18T22:53:27.783Z,13.53
2022-12-18T22:56:01.932Z,13.53
2022-12-18T22:58:29.913Z,15.60
2022-12-18T23:00:57.930Z,12.77
2022-12-18T23:03:25.960Z,14.60
2022-12-18T23:06:03.557Z,15.33
2022-12-18T23:08:34.191Z,16.03
2022-12-18T23:11:02.341Z,15.03
2022-12-18T23:13:30.353Z,14.70
2022-12-18T23:15:58.408Z,14.13
2022-12-18T23:18:26.600Z,13.73
2022-12-18T23:20:55.926Z,15.83
2022-12-18T23:23:24.095Z,15.20
2022-12-18T23:25:52.086Z,12.83
2022-12-18T23:28:20.094Z,16.33
2022-12-18T23:30:48.075Z,13.77
2022-12-18T23:33:15.998Z,14.33
2022-12-18T23:35:46.202Z,14.40
2022-12-18T23:38:15.519Z,13.47
2022-12-18T23:40:43.489Z,16.37
2022-12-18T23:43:13.432Z,15.27
2022-12-18T23:45:41.462Z,14.57
2022-12-18T23:48:09.446Z,16.03
2022-12-18T23:50:37.371Z,13.80
2022-12-18T23:53:05.949Z,14.67
2022-12-18T23:55:40.673Z,13.90
2022-12-18T23:58:10.131Z,13.37
